^^
Meteo Knjazevac Station Historical Data
Daily Summary for April 5, 2021 Units:  English    Metric   Both
Daily Weekly Monthly Yearly Custom
  High: Low: Average:
Temperature: 85.8 °F 58.8 °F 71.2 °F
Dew Point: 70.7 °F 55.8 °F 62.1 °F
Humidity: 93% 52% 75%
Wind Speed: 8mph 0mph 2.1mph
Wind Gust: 13mph - -
Wind- - SW
Pressure: 29.95 in 29.86 in -
Precipitation: 0.00 in    
Historical Graphs
 
 
Tabular Data for April 5, 2021
Time Temperature Dew Point Pressure Wind Wind Speed Wind Gust Humidity Rainfall Rate (Hourly) solar Conditions
00:00 61.7 °F 57.1 °F 29.95 in WSW 1 mph 5 mph 85% 0.00 in 0 W/m2
00:10 61.4 °F 56.9 °F 29.95 in WSW 2 mph 5 mph 85% 0.00 in 0 W/m2
00:20 61 °F 56.4 °F 29.95 in West 2 mph 5 mph 85% 0.00 in 0 W/m2
00:30 60.8 °F 56.6 °F 29.95 in WSW 2 mph 5 mph 86% 0.00 in 0 W/m2
00:40 60.3 °F 56.1 °F 29.95 in WSW 2 mph 5 mph 86% 0.00 in 0 W/m2
00:50 60.1 °F 55.9 °F 29.94 in West 2 mph 5 mph 86% 0.00 in 0 W/m2
01:00 60.1 °F 55.9 °F 29.94 in Calm   5 mph 86% 0.00 in 0 W/m2
01:10 59.9 °F 56.3 °F 29.94 in WSW 2 mph 3 mph 88% 0.00 in 0 W/m2
01:20 59.9 °F 56.3 °F 29.94 in WNW 1 mph 4 mph 88% 0.00 in 0 W/m2
01:30 60.1 °F 56.5 °F 29.93 in WNW 1 mph 3 mph 88% 0.00 in 0 W/m2
01:40 59.9 °F 56.3 °F 29.93 in Calm   2 mph 88% 0.00 in 0 W/m2
01:50 59.5 °F 56.3 °F 29.93 in West 1 mph 2 mph 89% 0.00 in 0 W/m2
02:00 59.4 °F 56.1 °F 29.93 in WNW 1 mph 2 mph 89% 0.00 in 0 W/m2
02:10 59 °F 55.8 °F 29.93 in West 2 mph 3 mph 89% 0.00 in 0 W/m2
02:20 58.8 °F 55.9 °F 29.93 in WNW 2 mph 3 mph 90% 0.00 in 0 W/m2
02:30 59 °F 56.1 °F 29.93 in West 2 mph 5 mph 90% 0.00 in 0 W/m2
02:40 59.2 °F 55.9 °F 29.93 in West 2 mph 3 mph 89% 0.00 in 0 W/m2
02:50 59.4 °F 56.1 °F 29.92 in West 2 mph 3 mph 89% 0.00 in 0 W/m2
03:00 59.4 °F 56.1 °F 29.92 in WSW 1 mph 3 mph 89% 0.00 in 0 W/m2
03:10 59.4 °F 56.1 °F 29.92 in WNW 1 mph 2 mph 89% 0.00 in 0 W/m2
03:20 59.5 °F 56.3 °F 29.92 in Calm   2 mph 89% 0.00 in 0 W/m2
03:30 59.7 °F 56.5 °F 29.91 in Calm   1 mph 89% 0.00 in 0 W/m2
03:40 59.7 °F 56.8 °F 29.91 in Calm   1 mph 90% 0.00 in 0 W/m2
03:50 59.5 °F 56.6 °F 29.91 in West 1 mph 2 mph 90% 0.00 in 0 W/m2
04:00 59.5 °F 56.6 °F 29.91 in WNW 1 mph 4 mph 90% 0.00 in 0 W/m2
04:10 59.5 °F 56.6 °F 29.92 in Calm   3 mph 90% 0.00 in 0 W/m2
04:20 59.5 °F 56.9 °F 29.91 in Calm   2 mph 91% 0.00 in 0 W/m2
04:30 59.5 °F 56.9 °F 29.91 in Calm   1 mph 91% 0.00 in 0 W/m2
04:40 59.7 °F 57.1 °F 29.91 in Calm   2 mph 91% 0.00 in 0 W/m2
04:50 59.9 °F 57.3 °F 29.92 in Calm   2 mph 91% 0.00 in 0 W/m2
05:00 59.9 °F 57.9 °F 29.92 in WNW 1 mph 2 mph 93% 0.00 in 1 W/m2
05:10 59.9 °F 57.9 °F 29.92 in West 1 mph 2 mph 93% 0.00 in 4 W/m2
05:20 60.1 °F 58 °F 29.92 in Calm   2 mph 93% 0.00 in 8 W/m2
05:30 60.1 °F 58 °F 29.92 in WNW 1 mph 3 mph 93% 0.00 in 19 W/m2
05:40 60.1 °F 57.4 °F 29.92 in SW 2 mph 3 mph 91% 0.00 in 29 W/m2
05:50 60.4 °F 58.4 °F 29.91 in West 2 mph 5 mph 93% 0.00 in 32 W/m2
06:00 60.6 °F 57.7 °F 29.92 in NW 1 mph 4 mph 90% 0.00 in 41 W/m2
06:10 61 °F 58.3 °F 29.91 in NW 1 mph 2 mph 91% 0.00 in 42 W/m2
06:20 61.2 °F 59.1 °F 29.91 in WSW 1 mph 3 mph 93% 0.00 in 54 W/m2
06:30 61.3 °F 59.3 °F 29.91 in WSW 2 mph 3 mph 93% 0.00 in 56 W/m2
06:40 61.5 °F 58.9 °F 29.91 in SW 2 mph 3 mph 91% 0.00 in 52 W/m2
06:50 61.7 °F 59.7 °F 29.91 in West 1 mph 2 mph 93% 0.00 in 120 W/m2
07:00 62 °F 59.4 °F 29.91 in NNW 1 mph 2 mph 91% 0.00 in 280 W/m2
07:10 62.6 °F 59.6 °F 29.91 in West 1 mph 3 mph 90% 0.00 in 323 W/m2
07:20 63.1 °F 60.1 °F 29.91 in NW 1 mph 2 mph 90% 0.00 in 327 W/m2
07:30 63.7 °F 60.4 °F 29.91 in WSW 2 mph 4 mph 89% 0.00 in 326 W/m2
07:40 64 °F 60.4 °F 29.91 in West 1 mph 3 mph 88% 0.00 in 179 W/m2
07:50 64.6 °F 60 °F 29.91 in Calm   3 mph 85% 0.00 in 427 W/m2
08:00 65.3 °F 60.3 °F 29.91 in ENE 1 mph 2 mph 84% 0.00 in 447 W/m2
08:10 66 °F 61.4 °F 29.91 in North 3 mph 6 mph 85% 0.00 in 448 W/m2
08:20 66.9 °F 61.9 °F 29.91 in North 1 mph 4 mph 84% 0.00 in 547 W/m2
08:30 67.8 °F 62.5 °F 29.91 in NNE 5 mph 8 mph 83% 0.00 in 576 W/m2
08:40 68.5 °F 62.1 °F 29.91 in NNE 2 mph 6 mph 80% 0.00 in 604 W/m2
08:50 69.4 °F 63 °F 29.91 in North 2 mph 5 mph 80% 0.00 in 632 W/m2
09:00 71.4 °F 63.8 °F 29.91 in North 1 mph 5 mph 77% 0.00 in 659 W/m2
09:10 73 °F 63.9 °F 29.91 in North 1 mph 4 mph 73% 0.00 in 367 W/m2
09:20 73.6 °F 64 °F 29.91 in NNE 1 mph 3 mph 72% 0.00 in 380 W/m2
09:30 73.9 °F 64.3 °F 29.90 in Calm   2 mph 72% 0.00 in 455 W/m2
09:40 74.7 °F 65 °F 29.90 in SSW 2 mph 3 mph 72% 0.00 in 760 W/m2
09:50 76.5 °F 67.2 °F 29.90 in SW 1 mph 5 mph 73% 0.00 in 783 W/m2
10:00 78.1 °F 66.2 °F 29.90 in SE 3 mph 5 mph 67% 0.00 in 804 W/m2
10:10 79.3 °F 66.5 °F 29.90 in NE 2 mph 6 mph 65% 0.00 in 536 W/m2
10:20 79.7 °F 66.4 °F 29.90 in SSW 2 mph 6 mph 64% 0.00 in 623 W/m2
10:30 79.9 °F 66.2 °F 29.90 in South 2 mph 7 mph 63% 0.00 in 511 W/m2
10:40 79.7 °F 64.6 °F 29.90 in SW 7 mph 12 mph 60% 0.00 in 593 W/m2
10:50 79.7 °F 64.1 °F 29.90 in WSW 7 mph 12 mph 59% 0.00 in 515 W/m2
11:00 80.4 °F 65.3 °F 29.90 in SW 7 mph 12 mph 60% 0.00 in 909 W/m2
11:10 81 °F 64.8 °F 29.89 in SW 8 mph 13 mph 58% 0.00 in 922 W/m2
11:20 81.5 °F 65.3 °F 29.89 in SW 6 mph 13 mph 58% 0.00 in 759 W/m2
11:30 81.9 °F 66.1 °F 29.89 in SW 5 mph 11 mph 59% 0.00 in 655 W/m2
11:40 81.3 °F 66.1 °F 29.89 in WSW 3 mph 8 mph 60% 0.00 in 543 W/m2
11:50 81.1 °F 65.5 °F 29.89 in SW 5 mph 8 mph 59% 0.00 in 512 W/m2
12:00 81.9 °F 65.6 °F 29.89 in South 1 mph 6 mph 58% 0.00 in 965 W/m2
12:10 82.4 °F 66.1 °F 29.88 in SSE 3 mph 7 mph 58% 0.00 in 969 W/m2
12:20 83.3 °F 65.4 °F 29.88 in SSE 1 mph 7 mph 55% 0.00 in 570 W/m2
12:30 83.5 °F 66.7 °F 29.88 in SW 3 mph 7 mph 57% 0.00 in 362 W/m2
12:40 83.7 °F 66.8 °F 29.88 in West 2 mph 5 mph 57% 0.00 in 973 W/m2
12:50 84.6 °F 67.6 °F 29.88 in SSW 3 mph 9 mph 57% 0.00 in 969 W/m2
13:00 85.1 °F 66.6 °F 29.88 in SW 2 mph 8 mph 54% 0.00 in 616 W/m2
13:10 85.3 °F 66.2 °F 29.88 in SSW 2 mph 8 mph 53% 0.00 in 555 W/m2
13:20 84.7 °F 66.3 °F 29.88 in South 3 mph 6 mph 54% 0.00 in 957 W/m2
13:30 85.3 °F 66.2 °F 29.87 in SSE 2 mph 6 mph 53% 0.00 in 949 W/m2
13:40 85.6 °F 66.5 °F 29.87 in SSW 1 mph 6 mph 53% 0.00 in 409 W/m2
13:50 85.5 °F 66.4 °F 29.87 in East 1 mph 6 mph 53% 0.00 in 405 W/m2
14:00 85.1 °F 65.5 °F 29.87 in South 1 mph 7 mph 52% 0.00 in 239 W/m2
14:10 84.7 °F 65.7 °F 29.87 in Calm   3 mph 53% 0.00 in 220 W/m2
14:20 84.6 °F 66.1 °F 29.87 in Calm   2 mph 54% 0.00 in 592 W/m2
14:30 85.5 °F 68.5 °F 29.86 in NNW 2 mph 5 mph 57% 0.00 in 872 W/m2
14:40 85.5 °F 68.5 °F 29.86 in North 2 mph 6 mph 57% 0.00 in 326 W/m2
14:50 85.8 °F 67.3 °F 29.87 in North 2 mph 6 mph 54% 0.00 in 836 W/m2
15:00 85.6 °F 66.5 °F 29.87 in North 1 mph 6 mph 53% 0.00 in 143 W/m2
15:10 85.1 °F 67.1 °F 29.87 in North 2 mph 4 mph 55% 0.00 in 107 W/m2
15:20 84.2 °F 66.3 °F 29.88 in NNW 3 mph 9 mph 55% 0.00 in 100 W/m2
15:30 82.9 °F 67.1 °F 29.88 in NNW 5 mph 10 mph 59% 0.00 in 151 W/m2
15:40 81.3 °F 67.1 °F 29.89 in SW 5 mph 13 mph 62% 0.00 in 347 W/m2
15:50 81 °F 67.6 °F 29.89 in SW 3 mph 8 mph 64% 0.00 in 635 W/m2
16:00 81.3 °F 68.4 °F 29.89 in SW 5 mph 8 mph 65% 0.00 in 675 W/m2
16:10 81.3 °F 68.4 °F 29.89 in SW 6 mph 12 mph 65% 0.00 in 363 W/m2
16:20 80.5 °F 68.5 °F 29.88 in SW 6 mph 8 mph 67% 0.00 in 491 W/m2
16:30 80.6 °F 70.7 °F 29.88 in SSW 3 mph 7 mph 72% 0.00 in 593 W/m2
16:40 80.4 °F 67.6 °F 29.89 in SW 3 mph 10 mph 65% 0.00 in 270 W/m2
16:50 79.7 °F 67.8 °F 29.88 in WSW 5 mph 8 mph 67% 0.00 in 198 W/m2
17:00 79.5 °F 67.6 °F 29.89 in WSW 6 mph 8 mph 67% 0.00 in 182 W/m2
17:10 79.3 °F 66.5 °F 29.89 in WSW 5 mph 11 mph 65% 0.00 in 151 W/m2
17:20 79 °F 66.2 °F 29.89 in WSW 1 mph 8 mph 65% 0.00 in 130 W/m2
17:30 78.8 °F 66.9 °F 29.89 in WSW 1 mph 5 mph 67% 0.00 in 113 W/m2
17:40 78.6 °F 66.7 °F 29.89 in WSW 2 mph 5 mph 67% 0.00 in 110 W/m2
17:50 78.3 °F 66.4 °F 29.89 in WNW 1 mph 4 mph 67% 0.00 in 122 W/m2
Knjazevac, Serbia
Compliments of Weather Underground - 2 mb